createdAt,value
2023-05-10T00:00:19.400Z,3.73
2023-05-10T00:02:48.249Z,4.43
2023-05-10T00:05:16.558Z,3.13
2023-05-10T00:07:45.894Z,2.73
2023-05-10T00:10:14.409Z,6.27
2023-05-10T00:12:42.617Z,5.30
2023-05-10T00:15:12.659Z,3.93
2023-05-10T00:17:41.435Z,4.20
2023-05-10T00:20:10.327Z,4.10
2023-05-10T00:22:38.320Z,3.20
2023-05-10T00:25:07.489Z,3.47
2023-05-10T00:27:35.520Z,3.37
2023-05-10T00:30:03.498Z,4.07
2023-05-10T00:32:32.920Z,3.67
2023-05-10T00:35:00.950Z,4.13
2023-05-10T00:37:28.954Z,4.13
2023-05-10T00:39:56.990Z,3.63
2023-05-10T00:42:24.987Z,4.37
2023-05-10T00:44:52.988Z,9.50
2023-05-10T00:47:21.100Z,3.40
2023-05-10T00:49:50.519Z,3.47
2023-05-10T00:52:18.573Z,3.77
2023-05-10T00:54:47.179Z,3.47
2023-05-10T00:57:15.190Z,3.70
2023-05-10T00:59:43.292Z,4.23
2023-05-10T01:02:11.580Z,3.83
2023-05-10T01:04:40.650Z,3.63
2023-05-10T01:07:10.232Z,3.90
2023-05-10T01:09:38.290Z,6.07
2023-05-10T01:12:08.501Z,3.73
2023-05-10T01:14:38.179Z,3.93
2023-05-10T01:17:08.085Z,3.90
2023-05-10T01:19:38.986Z,3.73
2023-05-10T01:22:23.508Z,3.40
2023-05-10T01:25:23.809Z,4.00
2023-05-10T01:28:14.825Z,4.93
2023-05-10T01:31:06.292Z,4.00
2023-05-10T01:33:41.298Z,5.97
2023-05-10T01:36:26.911Z,5.37
2023-05-10T01:39:00.187Z,3.93
2023-05-10T01:41:37.571Z,3.80
2023-05-10T01:44:12.367Z,4.20
2023-05-10T01:46:42.172Z,4.77
2023-05-10T01:49:13.778Z,4.20
2023-05-10T01:51:47.208Z,4.17
2023-05-10T01:54:17.244Z,4.03
2023-05-10T01:56:47.665Z,3.90
2023-05-10T01:59:19.364Z,4.30
2023-05-10T02:01:49.145Z,4.43
2023-05-10T02:04:19.606Z,5.40
2023-05-10T02:06:49.441Z,4.43
2023-05-10T02:09:18.579Z,5.50
2023-05-10T02:11:47.012Z,4.17
2023-05-10T02:14:16.341Z,4.53
2023-05-10T02:16:46.829Z,4.20
2023-05-10T02:19:16.706Z,3.93
2023-05-10T02:21:47.507Z,4.33
2023-05-10T02:24:17.902Z,4.73
2023-05-10T02:26:47.339Z,4.30
2023-05-10T02:29:17.137Z,4.07
2023-05-10T02:31:45.875Z,4.10
2023-05-10T02:34:14.425Z,5.00
2023-05-10T02:36:44.979Z,4.30
2023-05-10T02:39:15.336Z,5.33
2023-05-10T02:41:45.395Z,4.20
2023-05-10T02:44:16.685Z,3.97
2023-05-10T02:46:44.743Z,4.43
2023-05-10T02:49:12.920Z,4.60
2023-05-10T02:51:48.958Z,4.40
2023-05-10T02:54:22.386Z,4.20
2023-05-10T02:56:54.897Z,4.63
2023-05-10T02:59:22.940Z,4.77
2023-05-10T03:01:51.054Z,4.60
2023-05-10T03:04:19.218Z,4.23
2023-05-10T03:06:48.941Z,4.37
2023-05-10T03:09:17.282Z,4.43
2023-05-10T03:11:58.731Z,5.53
2023-05-10T03:14:42.019Z,5.07
2023-05-10T03:17:16.860Z,5.17
2023-05-10T03:19:49.051Z,5.60
2023-05-10T03:22:27.169Z,4.43
2023-05-10T03:24:58.731Z,4.97
2023-05-10T03:27:29.013Z,5.07
2023-05-10T03:29:57.815Z,5.27
2023-05-10T03:32:25.963Z,4.47
2023-05-10T03:34:54.039Z,4.87
2023-05-10T03:37:23.402Z,4.50
2023-05-10T03:39:51.500Z,4.47
2023-05-10T03:42:19.803Z,4.40
2023-05-10T03:44:47.802Z,6.20
2023-05-10T03:47:15.865Z,4.13
2023-05-10T03:49:44.067Z,4.57
2023-05-10T03:52:12.113Z,4.53
2023-05-10T03:54:41.504Z,4.83
2023-05-10T03:57:09.540Z,4.83
2023-05-10T03:59:37.538Z,4.57
2023-05-10T04:02:05.641Z,4.60
2023-05-10T04:04:33.677Z,3.97
2023-05-10T04:07:01.695Z,4.63
2023-05-10T04:09:29.704Z,5.53
2023-05-10T04:12:00.518Z,5.60
2023-05-10T04:14:28.507Z,5.60
2023-05-10T04:16:56.764Z,4.43
2023-05-10T04:19:25.213Z,4.70
2023-05-10T04:21:53.220Z,5.00
2023-05-10T04:24:21.243Z,4.37
2023-05-10T04:26:49.233Z,5.07
2023-05-10T04:29:18.651Z,6.43
2023-05-10T04:31:46.656Z,4.60
2023-05-10T04:34:14.841Z,4.40
2023-05-10T04:36:42.877Z,7.40
2023-05-10T04:39:10.896Z,5.63
2023-05-10T04:41:40.445Z,6.70
2023-05-10T04:44:08.461Z,3.93
2023-05-10T04:46:37.910Z,4.20
2023-05-10T04:49:06.014Z,3.93
2023-05-10T04:51:34.168Z,4.30
2023-05-10T04:54:06.561Z,6.07
2023-05-10T04:56:35.072Z,5.17
2023-05-10T04:59:03.670Z,4.97
2023-05-10T05:01:31.791Z,4.20
2023-05-10T05:04:01.324Z,4.60
2023-05-10T05:06:29.326Z,5.00
2023-05-10T05:08:57.389Z,5.47
2023-05-10T05:11:26.415Z,4.77
2023-05-10T05:13:54.549Z,4.97
2023-05-10T05:16:22.708Z,4.93
2023-05-10T05:18:50.856Z,4.83
2023-05-10T05:21:21.403Z,5.63
2023-05-10T05:23:49.943Z,4.57
2023-05-10T05:26:17.984Z,4.33
2023-05-10T05:28:46.026Z,6.07
2023-05-10T05:31:14.877Z,5.23
2023-05-10T05:33:42.954Z,5.20
2023-05-10T05:36:11.240Z,5.13
2023-05-10T05:38:40.629Z,5.63
2023-05-10T05:41:08.657Z,5.13
2023-05-10T05:43:38.353Z,4.93
2023-05-10T05:46:07.004Z,4.77
2023-05-10T05:48:35.073Z,5.10
2023-05-10T05:51:04.675Z,6.33
2023-05-10T05:53:34.660Z,4.63
2023-05-10T05:56:04.650Z,6.00
2023-05-10T05:58:32.719Z,4.90
2023-05-10T06:01:00.707Z,5.87
2023-05-10T06:03:28.760Z,4.30
2023-05-10T06:05:56.770Z,5.40
2023-05-10T06:08:24.791Z,5.80
2023-05-10T06:10:52.830Z,5.37
2023-05-10T06:13:22.280Z,4.93
2023-05-10T06:15:50.314Z,6.13
2023-05-10T06:18:18.358Z,5.20
2023-05-10T06:20:46.346Z,5.20
2023-05-10T06:23:14.385Z,6.23
2023-05-10T06:25:42.377Z,4.70
2023-05-10T06:28:10.445Z,4.60
2023-05-10T06:30:39.830Z,5.97
2023-05-10T06:33:07.864Z,4.80
2023-05-10T06:35:35.960Z,5.57
2023-05-10T06:38:03.967Z,5.53
2023-05-10T06:40:32.071Z,4.77
2023-05-10T06:43:00.290Z,5.70
2023-05-10T06:45:28.378Z,4.80
2023-05-10T06:47:57.862Z,5.77
2023-05-10T06:50:25.973Z,5.50
2023-05-10T06:52:54.007Z,7.37
2023-05-10T06:55:22.182Z,4.97
2023-05-10T06:57:50.188Z,6.07
2023-05-10T07:00:19.354Z,5.30
2023-05-10T07:02:47.931Z,4.90
2023-05-10T07:05:17.914Z,5.67
2023-05-10T07:07:46.091Z,4.40
2023-05-10T07:10:14.373Z,4.67
2023-05-10T07:12:42.478Z,7.57
2023-05-10T07:15:11.643Z,4.70
2023-05-10T07:17:40.426Z,5.63
2023-05-10T07:20:10.984Z,4.77
2023-05-10T07:22:40.365Z,5.30
2023-05-10T07:25:09.255Z,4.33
2023-05-10T07:27:37.306Z,4.93
2023-05-10T07:30:05.885Z,4.93
2023-05-10T07:32:34.090Z,4.93
2023-05-10T07:35:02.124Z,5.17
2023-05-10T07:37:30.142Z,5.93
2023-05-10T07:39:59.476Z,4.83
2023-05-10T07:42:27.788Z,6.90
2023-05-10T07:44:55.944Z,5.37
2023-05-10T07:47:24.454Z,5.50
2023-05-10T07:49:52.571Z,5.90
2023-05-10T07:52:22.431Z,5.20
2023-05-10T07:54:50.734Z,5.20
2023-05-10T07:57:20.181Z,5.73
2023-05-10T07:59:48.509Z,5.77
2023-05-10T08:02:16.702Z,4.80
2023-05-10T08:04:44.862Z,6.23
2023-05-10T08:07:12.981Z,6.40
2023-05-10T08:09:41.033Z,5.40
2023-05-10T08:12:09.041Z,4.90
2023-05-10T08:14:38.590Z,4.57
2023-05-10T08:17:06.849Z,5.40
2023-05-10T08:19:34.897Z,5.93
2023-05-10T08:22:02.933Z,6.50
2023-05-10T08:24:31.010Z,5.10
2023-05-10T08:26:59.353Z,5.20
2023-05-10T08:29:28.519Z,5.17
2023-05-10T08:31:59.917Z,5.83
2023-05-10T08:34:27.954Z,6.13
2023-05-10T08:36:56.045Z,6.70
2023-05-10T08:39:30.466Z,5.27
2023-05-10T08:42:03.519Z,5.80
2023-05-10T08:44:32.894Z,5.50
2023-05-10T08:47:07.064Z,7.70
2023-05-10T08:49:35.771Z,5.67
2023-05-10T08:52:06.350Z,6.03
2023-05-10T08:54:35.120Z,6.10
2023-05-10T08:57:03.529Z,5.90
2023-05-10T08:59:31.975Z,6.30
2023-05-10T09:02:00.767Z,6.00
2023-05-10T09:04:31.493Z,6.63
2023-05-10T09:06:59.821Z,6.67
2023-05-10T09:09:29.190Z,6.40
2023-05-10T09:11:57.364Z,6.00
2023-05-10T09:14:26.621Z,5.83
2023-05-10T09:16:56.236Z,7.57
2023-05-10T09:19:24.329Z,6.27
2023-05-10T09:21:53.676Z,6.80
2023-05-10T09:24:21.871Z,6.40
2023-05-10T09:26:50.636Z,6.13
2023-05-10T09:29:18.706Z,7.90
2023-05-10T09:31:48.828Z,6.53
2023-05-10T09:34:21.198Z,6.40
2023-05-10T09:36:58.487Z,6.60
2023-05-10T09:39:34.025Z,6.93
2023-05-10T09:42:04.675Z,7.00
2023-05-10T09:44:33.762Z,6.50
2023-05-10T09:47:02.168Z,6.27
2023-05-10T09:49:30.540Z,9.13
2023-05-10T09:52:08.025Z,7.50
2023-05-10T09:54:36.961Z,6.40
2023-05-10T09:57:05.244Z,7.13
2023-05-10T09:59:36.223Z,7.13
2023-05-10T10:02:04.784Z,7.37
2023-05-10T10:04:33.148Z,7.97
2023-05-10T10:07:06.703Z,7.93
2023-05-10T10:09:36.138Z,7.50
2023-05-10T10:12:05.571Z,7.67
2023-05-10T10:14:33.682Z,7.50
2023-05-10T10:19:36.268Z,7.87
2023-05-10T10:22:06.161Z,8.50
2023-05-10T10:24:34.189Z,7.60
2023-05-10T10:27:10.932Z,7.77
2023-05-10T10:29:46.789Z,8.87
2023-05-10T10:32:26.649Z,7.93
2023-05-10T10:34:56.048Z,7.67
2023-05-10T10:37:26.127Z,8.73
2023-05-10T10:39:54.643Z,8.33
2023-05-10T10:42:46.944Z,8.30
2023-05-10T10:45:15.558Z,7.33
2023-05-10T10:47:44.675Z,8.37
2023-05-10T10:50:14.000Z,9.17
2023-05-10T10:52:44.211Z,8.03
2023-05-10T10:55:13.575Z,7.67
2023-05-10T10:57:53.256Z,8.37
2023-05-10T11:00:27.516Z,8.20
2023-05-10T11:02:57.838Z,9.07
2023-05-10T11:05:27.797Z,8.50
2023-05-10T11:07:58.398Z,8.40
2023-05-10T11:10:27.407Z,7.47
2023-05-10T11:12:56.595Z,8.77
2023-05-10T11:15:31.562Z,9.80
2023-05-10T11:17:59.810Z,8.17
2023-05-10T11:20:34.264Z,8.37
2023-05-10T11:23:16.705Z,7.40
2023-05-10T11:25:46.041Z,8.70
2023-05-10T11:28:14.430Z,8.27
2023-05-10T11:30:45.087Z,8.57
2023-05-10T11:33:18.357Z,7.97
2023-05-10T11:35:46.582Z,8.63
2023-05-10T11:38:16.381Z,8.70
2023-05-10T11:40:44.527Z,8.40
2023-05-10T11:43:13.336Z,8.57
2023-05-10T11:45:44.495Z,8.03
2023-05-10T11:48:12.550Z,8.80
2023-05-10T11:50:40.670Z,9.23
2023-05-10T11:53:08.685Z,7.83
2023-05-10T11:55:38.047Z,8.03
2023-05-10T11:58:06.058Z,7.80
2023-05-10T12:00:34.441Z,8.63
2023-05-10T12:03:03.955Z,8.33
2023-05-10T12:05:35.093Z,8.03
2023-05-10T12:08:16.220Z,8.13
2023-05-10T12:10:45.684Z,7.23
2023-05-10T12:13:15.331Z,7.17
2023-05-10T12:15:44.330Z,6.57
2023-05-10T12:18:12.690Z,6.77
2023-05-10T12:20:41.229Z,7.70
2023-05-10T12:23:11.619Z,6.80
2023-05-10T12:25:40.772Z,6.63
2023-05-10T12:28:11.178Z,6.23
2023-05-10T12:30:40.337Z,5.83
2023-05-10T12:33:11.475Z,7.20
2023-05-10T12:35:47.608Z,7.30
2023-05-10T12:38:27.859Z,6.90
2023-05-10T12:40:55.992Z,6.83
2023-05-10T12:43:25.509Z,6.83
2023-05-10T12:45:53.671Z,7.63
2023-05-10T12:48:21.847Z,7.20
2023-05-10T12:50:49.879Z,6.47
2023-05-10T12:53:18.605Z,6.90
2023-05-10T12:55:46.795Z,6.03
2023-05-10T12:58:31.521Z,7.77
2023-05-10T13:01:05.172Z,7.70
2023-05-10T13:03:33.637Z,6.50
2023-05-10T13:06:01.665Z,6.27
2023-05-10T13:08:34.203Z,6.07
2023-05-10T13:11:02.551Z,7.57
2023-05-10T13:13:30.705Z,6.43
2023-05-10T13:15:58.710Z,7.83
2023-05-10T13:18:28.272Z,7.10
2023-05-10T13:20:56.749Z,8.07
2023-05-10T13:23:24.796Z,8.53
2023-05-10T13:25:53.078Z,8.07
2023-05-10T13:28:21.086Z,6.90
2023-05-10T13:30:49.084Z,6.77
2023-05-10T13:33:17.058Z,7.37
2023-05-10T13:35:46.554Z,8.20
2023-05-10T13:38:14.922Z,7.90
2023-05-10T13:40:42.962Z,9.53
2023-05-10T13:43:11.040Z,9.37
2023-05-10T13:45:39.879Z,9.40
2023-05-10T13:48:07.994Z,8.57
2023-05-10T13:50:36.072Z,8.80
2023-05-10T13:53:06.367Z,8.13
2023-05-10T13:55:34.646Z,9.43
2023-05-10T13:58:02.650Z,10.70
2023-05-10T14:00:30.661Z,9.83
2023-05-10T14:02:58.734Z,8.70
2023-05-10T14:05:27.026Z,10.50
2023-05-10T14:07:55.736Z,9.53
2023-05-10T14:10:25.108Z,8.40
2023-05-10T14:12:53.123Z,9.23
2023-05-10T14:15:21.108Z,9.33
2023-05-10T14:17:49.184Z,9.10
2023-05-10T14:20:17.358Z,9.77
2023-05-10T14:22:45.397Z,11.37
2023-05-10T14:25:13.728Z,10.47
2023-05-10T14:27:43.106Z,10.83
2023-05-10T14:30:11.988Z,10.93
2023-05-10T14:32:39.992Z,10.87
2023-05-10T14:35:10.743Z,10.57
2023-05-10T14:37:40.411Z,11.30
2023-05-10T14:40:11.284Z,10.90
2023-05-10T14:42:39.348Z,10.50
2023-05-10T14:45:09.960Z,10.20
2023-05-10T14:47:37.993Z,10.80
2023-05-10T14:50:06.914Z,10.00
2023-05-10T14:52:34.910Z,9.60
2023-05-10T14:55:03.313Z,8.97
2023-05-10T14:57:31.733Z,10.50
2023-05-10T14:59:59.931Z,10.67
2023-05-10T15:02:29.823Z,10.57
2023-05-10T15:04:58.473Z,10.10
2023-05-10T15:07:27.035Z,9.57
2023-05-10T15:09:55.164Z,9.87
2023-05-10T15:12:23.163Z,9.37
2023-05-10T15:14:51.192Z,9.20
2023-05-10T15:17:19.208Z,9.27
2023-05-10T15:19:50.371Z,9.17
2023-05-10T15:22:18.929Z,8.30
2023-05-10T15:24:47.024Z,8.60
2023-05-10T15:27:15.035Z,9.87
2023-05-10T15:29:43.032Z,9.07
2023-05-10T15:32:11.092Z,8.27
2023-05-10T15:34:39.081Z,9.10
2023-05-10T15:37:08.435Z,9.70
2023-05-10T15:39:36.421Z,9.00
2023-05-10T15:42:04.939Z,9.73
2023-05-10T15:44:32.935Z,8.87
2023-05-10T15:47:00.938Z,9.37
2023-05-10T15:49:28.954Z,10.27
2023-05-10T15:51:56.959Z,8.53
2023-05-10T15:54:27.139Z,8.53
2023-05-10T15:56:56.628Z,7.83
2023-05-10T15:59:24.642Z,9.90
2023-05-10T16:01:53.211Z,9.90
2023-05-10T16:04:21.318Z,9.90
2023-05-10T16:06:49.314Z,9.87
2023-05-10T16:09:17.398Z,10.43
2023-05-10T16:11:46.822Z,10.37
2023-05-10T16:14:14.874Z,9.17
2023-05-10T16:16:43.192Z,5.97
2023-05-10T16:19:11.354Z,3.10
2023-05-10T16:21:39.454Z,1.90
2023-05-10T16:24:07.733Z,2.53
2023-05-10T16:26:40.674Z,1.80
2023-05-10T16:29:10.454Z,2.03
2023-05-10T16:31:38.457Z,2.23
2023-05-10T16:34:06.485Z,4.37
2023-05-10T16:36:35.044Z,6.53
2023-05-10T16:39:03.892Z,7.63
2023-05-10T16:41:34.357Z,8.20
2023-05-10T16:44:02.410Z,8.23
2023-05-10T16:46:33.117Z,9.07
2023-05-10T16:49:01.295Z,10.77
2023-05-10T16:51:29.513Z,11.50
2023-05-10T16:53:57.546Z,11.67
2023-05-10T16:56:26.633Z,11.00
2023-05-10T16:58:54.801Z,9.83
2023-05-10T17:01:24.946Z,9.67
2023-05-10T17:03:55.976Z,9.43
2023-05-10T17:06:24.060Z,7.83
2023-05-10T17:08:52.150Z,7.13
2023-05-10T17:11:21.833Z,7.07
2023-05-10T17:13:49.915Z,7.73
2023-05-10T17:16:18.004Z,6.23
2023-05-10T17:18:46.563Z,5.50
2023-05-10T17:21:16.436Z,4.90
2023-05-10T17:23:44.457Z,5.23
2023-05-10T17:26:12.507Z,4.60
2023-05-10T17:28:40.648Z,4.50
2023-05-10T17:31:08.714Z,4.40
2023-05-10T17:33:36.734Z,4.53
2023-05-10T17:36:05.058Z,3.90
2023-05-10T17:38:34.428Z,3.63
2023-05-10T17:41:02.453Z,3.50
2023-05-10T17:43:30.446Z,3.27
2023-05-10T17:45:58.486Z,3.47
2023-05-10T17:48:26.723Z,2.70
2023-05-10T17:50:54.752Z,2.50
2023-05-10T17:53:22.773Z,2.10
2023-05-10T17:55:53.768Z,1.83
2023-05-10T17:58:21.824Z,2.10
2023-05-10T18:00:49.988Z,1.40
2023-05-10T18:03:18.003Z,1.40
2023-05-10T18:05:46.876Z,1.50
2023-05-10T18:08:15.878Z,1.50
2023-05-10T18:10:43.901Z,1.60
2023-05-10T18:13:13.254Z,1.60
2023-05-10T18:15:41.281Z,1.60
2023-05-10T18:18:10.820Z,2.23
2023-05-10T18:20:39.120Z,1.50
2023-05-10T18:23:07.328Z,1.50
2023-05-10T18:25:35.331Z,1.57
2023-05-10T18:28:03.535Z,1.77
2023-05-10T18:30:32.908Z,1.60
2023-05-10T18:33:01.016Z,1.53
2023-05-10T18:35:29.065Z,1.73
2023-05-10T18:37:57.192Z,2.50
2023-05-10T18:40:25.305Z,2.40
2023-05-10T18:42:53.348Z,2.60
2023-05-10T18:45:21.371Z,3.00
2023-05-10T18:47:50.838Z,3.10
2023-05-10T18:50:19.780Z,2.97
2023-05-10T18:52:47.805Z,3.47
2023-05-10T18:55:16.263Z,3.63
2023-05-10T18:57:45.171Z,4.07
2023-05-10T19:00:14.209Z,5.37
2023-05-10T19:02:42.435Z,5.57
2023-05-10T19:05:12.122Z,6.17
2023-05-10T19:07:43.414Z,6.73
2023-05-10T19:10:13.541Z,6.60
2023-05-10T19:12:42.284Z,6.73
2023-05-10T19:15:11.746Z,6.77
2023-05-10T19:17:41.110Z,8.07
2023-05-10T19:20:11.629Z,9.20
2023-05-10T19:25:13.083Z,10.00
2023-05-10T19:27:42.436Z,10.43
2023-05-10T19:30:11.332Z,10.57
2023-05-10T19:32:39.489Z,10.53
2023-05-10T19:35:08.013Z,11.30
2023-05-10T19:37:37.541Z,10.00
2023-05-10T19:40:06.434Z,10.23
2023-05-10T19:42:34.473Z,9.40
2023-05-10T19:45:02.454Z,9.53
2023-05-10T19:47:30.689Z,9.13
2023-05-10T19:49:58.831Z,9.20
2023-05-10T19:52:27.153Z,8.97
2023-05-10T19:54:56.569Z,9.20
2023-05-10T19:57:24.580Z,8.43
2023-05-10T19:59:52.859Z,9.33
2023-05-10T20:02:21.010Z,9.00
2023-05-10T20:04:48.983Z,9.30
2023-05-10T20:07:17.017Z,9.37
2023-05-10T20:09:46.077Z,10.10
2023-05-10T20:12:15.515Z,9.77
2023-05-10T20:14:43.473Z,9.30
2023-05-10T20:17:11.637Z,9.97
2023-05-10T20:19:39.667Z,10.57
2023-05-10T20:22:09.347Z,11.73
2023-05-10T20:24:37.749Z,10.37
2023-05-10T20:27:05.779Z,11.43
2023-05-10T20:29:35.135Z,11.43
2023-05-10T20:32:03.306Z,11.47
2023-05-10T20:34:31.783Z,11.70
2023-05-10T20:36:59.753Z,12.93
2023-05-10T20:39:27.724Z,14.20
2023-05-10T20:41:55.782Z,15.00
2023-05-10T20:44:24.784Z,14.60
2023-05-10T20:46:54.452Z,15.20
2023-05-10T20:49:22.530Z,16.67
2023-05-10T20:51:51.008Z,15.40
2023-05-10T20:54:18.976Z,16.47
2023-05-10T20:56:46.970Z,17.80
2023-05-10T20:59:15.009Z,16.93
2023-05-10T21:01:43.057Z,17.97
2023-05-10T21:04:12.574Z,17.27
2023-05-10T21:06:40.662Z,17.77
2023-05-10T21:09:08.672Z,17.67
2023-05-10T21:11:38.356Z,16.70
2023-05-10T21:14:06.573Z,17.30
2023-05-10T21:16:34.780Z,17.80
2023-05-10T21:19:02.953Z,18.83
2023-05-10T21:21:43.998Z,18.83
2023-05-10T21:24:12.453Z,20.13
2023-05-10T21:26:41.068Z,20.97
2023-05-10T21:29:09.467Z,20.80
2023-05-10T21:31:39.850Z,22.20
2023-05-10T21:34:08.160Z,21.73
2023-05-10T21:36:37.784Z,22.00
2023-05-10T21:39:05.901Z,21.70
2023-05-10T21:41:33.893Z,22.50
2023-05-10T21:44:01.993Z,21.20
2023-05-10T21:46:30.026Z,20.23
2023-05-10T21:48:58.088Z,22.67
2023-05-10T21:51:26.225Z,22.37
2023-05-10T21:53:55.682Z,21.43
2023-05-10T21:56:23.949Z,20.60
2023-05-10T21:58:52.066Z,21.50
2023-05-10T22:01:20.120Z,22.67
2023-05-10T22:03:48.358Z,20.27
2023-05-10T22:06:16.447Z,21.53
2023-05-10T22:08:44.415Z,17.10
2023-05-10T22:11:13.825Z,17.40
2023-05-10T22:13:41.823Z,14.93
2023-05-10T22:16:09.839Z,12.80
2023-05-10T22:18:38.106Z,12.93
2023-05-10T22:21:06.486Z,12.10
2023-05-10T22:23:34.511Z,12.33
2023-05-10T22:26:03.017Z,12.33
2023-05-10T22:28:32.414Z,11.80
2023-05-10T22:31:00.574Z,11.27
2023-05-10T22:33:28.625Z,10.70
2023-05-10T22:35:56.708Z,11.10
2023-05-10T22:38:24.794Z,11.63
2023-05-10T22:40:52.869Z,11.07
2023-05-10T22:43:20.902Z,10.67
2023-05-10T22:45:50.244Z,10.87
2023-05-10T22:48:18.413Z,11.30
2023-05-10T22:50:46.393Z,10.17
2023-05-10T22:53:14.372Z,11.47
2023-05-10T22:55:42.601Z,11.47
2023-05-10T22:58:10.666Z,11.57
2023-05-10T23:00:39.424Z,12.60
2023-05-10T23:03:08.791Z,13.03
2023-05-10T23:05:36.817Z,12.57
2023-05-10T23:08:04.816Z,11.60
2023-05-10T23:10:32.991Z,12.80
2023-05-10T23:13:01.147Z,12.37
2023-05-10T23:15:29.726Z,12.53
2023-05-10T23:18:00.930Z,12.13
2023-05-10T23:20:30.443Z,10.90
2023-05-10T23:22:58.461Z,11.97
2023-05-10T23:25:26.522Z,11.87
2023-05-10T23:27:54.523Z,10.87
2023-05-10T23:30:22.631Z,12.33
2023-05-10T23:32:50.686Z,13.10
2023-05-10T23:35:18.729Z,12.37
2023-05-10T23:37:48.058Z,12.43
2023-05-10T23:40:17.174Z,13.80
2023-05-10T23:42:45.340Z,12.30
2023-05-10T23:45:13.428Z,12.20
2023-05-10T23:47:41.514Z,12.47
2023-05-10T23:50:10.678Z,13.23
2023-05-10T23:52:38.706Z,13.10
2023-05-10T23:55:09.383Z,13.10
2023-05-10T23:57:37.426Z,12.90
